Time;durP1;ratioP1;P1;durP2;ratioP2;P2;SDS_P1;SDS_P2;PMS_P1;PMS_P2;Temp;Humidity;BMP_temperature;BMP_pressure;BME280_temperature;BME280_humidity;BME280_pressure;Samples;Min_cycle;Max_cycle;Signal;HPM_P1;HPM_P2
2023/04/16 00:01:32;;;;;;;91.40;30.98;;;9.60;99.90;;;;;;5055563;28;20033;-70
2023/04/16 00:03:58;;;;;;;89.43;28.23;;;9.30;99.90;;;;;;5055570;28;20106;-70
2023/04/16 00:06:23;;;;;;;90.63;32.22;;;9.40;99.90;;;;;;5055277;28;20043;-69
2023/04/16 00:08:50;;;;;;;96.25;31.67;;;9.60;99.90;;;;;;5055075;28;20040;-69
2023/04/16 00:11:16;;;;;;;92.13;31.48;;;9.50;99.90;;;;;;5055455;28;20106;-70
2023/04/16 00:13:42;;;;;;;86.30;30.25;;;;;;;;;;5055355;28;20132;-70
2023/04/16 00:16:08;;;;;;;87.85;29.13;;;9.40;99.90;;;;;;5038630;28;20072;-69
2023/04/16 00:18:33;;;;;;;88.80;29.60;;;9.30;99.90;;;;;;5055068;28;20037;-70
2023/04/16 00:20:59;;;;;;;79.38;28.77;;;9.40;99.90;;;;;;5054922;28;20120;-70
2023/04/16 00:23:25;;;;;;;80.38;29.00;;;9.70;99.90;;;;;;5038233;28;20444;-70
2023/04/16 00:25:52;;;;;;;85.45;29.42;;;9.60;99.90;;;;;;5055151;28;20068;-70
2023/04/16 00:28:18;;;;;;;78.38;27.92;;;9.50;99.90;;;;;;5054820;28;20039;-70
2023/04/16 00:30:43;;;;;;;79.90;30.60;;;9.60;99.90;;;;;;5055263;28;20040;-70
2023/04/16 00:33:09;;;;;;;94.45;30.90;;;9.60;99.90;;;;;;5055291;28;20510;-70
2023/04/16 00:35:35;;;;;;;85.57;30.65;;;9.50;99.90;;;;;;5054912;28;20036;-70
2023/04/16 00:38:00;;;;;;;85.97;29.95;;;9.50;99.90;;;;;;5072341;28;20037;-70
2023/04/16 00:40:30;;;;;;;74.28;27.98;;;9.60;99.90;;;;;;5055011;28;20094;-69
2023/04/16 00:42:55;;;;;;;76.25;30.30;;;9.50;99.90;;;;;;5056706;28;20040;-70
2023/04/16 00:45:21;;;;;;;69.45;26.42;;;9.70;99.90;;;;;;5073367;28;20035;-69
2023/04/16 00:47:46;;;;;;;67.93;27.95;;;9.60;99.90;;;;;;5054697;28;20435;-70
2023/04/16 00:50:12;;;;;;;80.47;30.10;;;9.70;99.90;;;;;;5054941;28;20040;-70
2023/04/16 00:52:39;;;;;;;75.55;26.95;;;9.60;99.90;;;;;;5054633;28;20048;-69
2023/04/16 00:55:06;;;;;;;67.55;26.30;;;9.70;99.90;;;;;;5054709;28;20044;-70
2023/04/16 00:57:32;;;;;;;71.63;26.92;;;9.40;99.90;;;;;;5054289;28;20068;-69
2023/04/16 00:59:58;;;;;;;74.25;27.38;;;9.50;99.90;;;;;;5071350;28;20056;-70
2023/04/16 01:02:23;;;;;;;73.55;28.15;;;9.50;99.90;;;;;;5037822;28;20133;-70
2023/04/16 01:04:50;;;;;;;69.75;27.63;;;9.70;99.90;;;;;;5037716;28;20032;-70
2023/04/16 01:07:16;;;;;;;73.40;27.23;;;9.70;99.90;;;;;;5054545;28;20395;-70
2023/04/16 01:09:41;;;;;;;72.80;26.50;;;9.80;99.90;;;;;;5054560;28;20045;-70
2023/04/16 01:12:07;;;;;;;68.35;25.88;;;9.80;99.90;;;;;;5054365;28;20047;-70
2023/04/16 01:14:35;;;;;;;79.85;30.88;;;9.40;99.90;;;;;;5072086;28;20044;-70
2023/04/16 01:17:01;;;;;;;66.65;28.70;;;9.60;99.90;;;;;;5053985;28;20048;-70
2023/04/16 01:19:30;;;;;;;70.18;26.98;;;9.60;99.90;;;;;;5054179;28;20531;-70
2023/04/16 01:21:56;;;;;;;72.60;27.63;;;9.60;99.90;;;;;;5054187;28;20036;-70
2023/04/16 01:24:21;;;;;;;62.53;27.80;;;9.80;99.90;;;;;;5054022;28;20101;-70
2023/04/16 01:26:47;;;;;;;68.28;28.08;;;9.40;99.90;;;;;;5054208;28;20496;-70
2023/04/16 01:29:12;;;;;;;67.32;26.83;;;9.60;99.90;;;;;;5054037;28;20044;-70
2023/04/16 01:31:38;;;;;;;77.22;27.50;;;9.60;99.90;;;;;;5037411;28;20042;-70
2023/04/16 01:34:04;;;;;;;65.60;27.27;;;9.50;99.90;;;;;;5053834;28;20089;-69
2023/04/16 01:36:29;;;;;;;63.63;26.75;;;9.70;99.90;;;;;;5053889;28;20507;-70
2023/04/16 01:38:55;;;;;;;74.82;28.25;;;9.60;99.90;;;;;;5053808;28;20044;-69
2023/04/16 01:41:21;;;;;;;76.78;29.50;;;9.60;99.90;;;;;;5053896;28;20029;-70
2023/04/16 01:43:47;;;;;;;79.25;26.50;;;9.40;99.90;;;;;;5053701;28;20041;-69
2023/04/16 01:46:14;;;;;;;79.45;26.67;;;9.30;99.90;;;;;;5053759;28;20062;-69
2023/04/16 01:48:40;;;;;;;74.57;27.83;;;9.60;99.90;;;;;;5053604;28;20115;-70
2023/04/16 01:51:06;;;;;;;73.78;29.55;;;9.40;99.90;;;;;;5053925;28;20125;-69
2023/04/16 01:53:31;;;;;;;79.30;27.98;;;9.60;99.90;;;;;;5037194;28;20075;-70
2023/04/16 01:55:57;;;;;;;74.13;26.83;;;9.60;99.90;;;;;;5054177;28;20124;-70
2023/04/16 01:58:22;;;;;;;75.25;28.88;;;9.40;99.90;;;;;;5053591;28;20126;-69
2023/04/16 02:00:48;;;;;;;70.97;26.13;;;9.70;99.90;;;;;;5053674;28;20090;-70
2023/04/16 02:03:16;;;;;;;79.82;28.23;;;9.70;99.90;;;;;;5053493;28;20428;-70
2023/04/16 02:05:41;;;;;;;77.30;28.45;;;9.80;99.90;;;;;;5053534;28;20041;-70
2023/04/16 02:08:07;;;;;;;86.18;27.10;;;9.60;99.90;;;;;;5053293;28;20040;-70
2023/04/16 02:10:33;;;;;;;90.82;28.10;;;9.70;99.90;;;;;;5053560;28;20045;-70
2023/04/16 02:12:58;;;;;;;70.43;27.55;;;9.60;99.90;;;;;;5057516;28;20044;-70
2023/04/16 02:15:24;;;;;;;70.65;26.83;;;9.60;99.90;;;;;;5058091;28;20066;-70
2023/04/16 02:17:53;;;;;;;73.35;27.50;;;9.80;99.90;;;;;;5057405;28;20037;-70
2023/04/16 02:20:19;;;;;;;78.97;28.17;;;9.70;99.90;;;;;;5057516;28;20094;-70
2023/04/16 02:22:45;;;;;;;71.40;29.60;;;9.80;99.90;;;;;;5075540;28;20044;-69
2023/04/16 02:25:10;;;;;;;66.60;27.33;;;9.80;99.90;;;;;;5057775;28;20398;-70
2023/04/16 02:27:36;;;;;;;73.03;28.05;;;9.60;99.90;;;;;;5057207;28;20044;-70
2023/04/16 02:30:03;;;;;;;76.95;27.80;;;9.50;99.90;;;;;;5057576;28;20083;-70
2023/04/16 02:32:29;;;;;;;69.07;27.02;;;9.70;99.90;;;;;;5057202;28;20040;-70
2023/04/16 02:34:55;;;;;;;71.13;28.10;;;9.40;99.90;;;;;;5057240;28;20081;-70
2023/04/16 02:37:21;;;;;;;77.70;30.63;;;9.70;99.90;;;;;;5057063;28;20051;-70
2023/04/16 02:39:48;;;;;;;69.15;30.00;;;9.50;99.90;;;;;;5057286;28;20036;-70
2023/04/16 02:42:15;;;;;;;72.35;30.10;;;9.70;99.90;;;;;;5057327;28;20403;-70
2023/04/16 02:44:41;;;;;;;75.70;30.80;;;9.50;99.90;;;;;;5057030;28;20040;-70
2023/04/16 02:47:06;;;;;;;80.88;31.67;;;9.70;99.90;;;;;;5056818;28;20535;-70
2023/04/16 02:49:32;;;;;;;81.78;32.50;;;9.60;99.90;;;;;;5040579;28;20047;-70
2023/04/16 02:51:57;;;;;;;82.93;32.33;;;9.70;99.90;;;;;;5057056;28;20074;-70
2023/04/16 02:54:23;;;;;;;80.60;32.85;;;9.60;99.90;;;;;;5056909;28;20044;-70
2023/04/16 02:56:48;;;;;;;78.95;32.65;;;9.90;99.90;;;;;;5056683;28;20037;-70
2023/04/16 02:59:14;;;;;;;85.93;32.88;;;9.70;99.90;;;;;;5056765;28;20036;-70
2023/04/16 03:01:40;;;;;;;79.57;33.55;;;9.70;99.90;;;;;;5040327;28;20036;-70
2023/04/16 03:04:05;;;;;;;78.22;32.03;;;9.70;99.90;;;;;;5040072;28;20069;-70
2023/04/16 03:06:31;;;;;;;82.68;31.77;;;9.70;99.90;;;;;;5056629;28;20093;-69
2023/04/16 03:08:57;;;;;;;73.78;30.98;;;9.70;99.90;;;;;;5056940;28;20036;-70
2023/04/16 03:11:22;;;;;;;75.35;30.80;;;9.60;99.90;;;;;;5056648;28;20075;-70
2023/04/16 03:13:48;;;;;;;74.47;30.15;;;9.60;99.90;;;;;;5056581;28;20033;-70
2023/04/16 03:16:14;;;;;;;82.45;31.48;;;9.50;99.90;;;;;;5056662;28;20044;-70
2023/04/16 03:18:40;;;;;;;84.32;30.85;;;9.60;99.90;;;;;;5056139;28;20032;-69
2023/04/16 03:21:05;;;;;;;97.32;33.05;;;9.50;99.90;;;;;;5039927;28;20075;-70
2023/04/16 03:23:31;;;;;;;90.13;32.58;;;9.40;99.90;;;;;;5055827;28;20165;-70
2023/04/16 03:25:56;;;;;;;78.60;32.35;;;9.40;99.90;;;;;;5056612;28;20631;-70
2023/04/16 03:28:22;;;;;;;106.50;35.15;;;9.50;99.90;;;;;;5056088;28;20041;-70
2023/04/16 03:30:52;;;;;;;83.47;33.38;;;9.60;99.90;;;;;;5056257;28;20129;-71
2023/04/16 03:33:18;;;;;;;87.90;31.50;;;9.60;99.90;;;;;;5056377;28;20404;-70
2023/04/16 03:35:44;;;;;;;80.40;32.55;;;9.50;99.90;;;;;;5056499;28;20143;-70
2023/04/16 03:38:10;;;;;;;92.72;31.30;;;9.70;99.90;;;;;;5055634;28;20123;-70
2023/04/16 03:40:36;;;;;;;86.60;32.42;;;9.70;99.90;;;;;;5056134;28;20084;-69
2023/04/16 03:43:02;;;;;;;80.25;31.80;;;9.50;99.90;;;;;;5056004;28;20064;-70
2023/04/16 03:45:27;;;;;;;93.03;32.00;;;9.50;99.90;;;;;;5055949;28;20044;-70
2023/04/16 03:47:53;;;;;;;80.13;30.08;;;9.40;99.90;;;;;;5055791;28;20067;-70
2023/04/16 03:50:18;;;;;;;79.95;29.33;;;9.40;99.90;;;;;;5055787;28;20047;-70
2023/04/16 03:52:45;;;;;;;77.80;29.40;;;9.60;99.90;;;;;;5039240;28;20040;-69
2023/04/16 03:55:11;;;;;;;83.50;28.75;;;9.80;99.90;;;;;;5055757;28;20044;-70
2023/04/16 03:57:37;;;;;;;68.70;27.45;;;9.50;99.90;;;;;;5055645;28;20081;-70
2023/04/16 04:00:03;;;;;;;75.38;26.85;;;9.50;99.90;;;;;;5055522;28;20040;-70
2023/04/16 04:02:29;;;;;;;78.28;27.42;;;9.50;99.90;;;;;;5055966;28;20370;-70
2023/04/16 04:04:55;;;;;;;78.22;27.33;;;9.70;99.90;;;;;;5038954;28;20094;-70
2023/04/16 04:07:20;;;;;;;68.47;27.85;;;9.40;99.90;;;;;;5055669;28;20090;-70
2023/04/16 04:09:46;;;;;;;79.50;27.70;;;9.70;99.90;;;;;;5055392;28;20051;-70
2023/04/16 04:12:12;;;;;;;76.88;26.67;;;9.40;99.90;;;;;;5073508;28;20040;-70
2023/04/16 04:14:38;;;;;;;78.22;27.55;;;9.60;99.90;;;;;;5055319;28;20083;-70
2023/04/16 04:17:05;;;;;;;75.82;27.50;;;10.00;99.90;;;;;;5055040;28;20051;-70
2023/04/16 04:19:30;;;;;;;66.35;26.40;;;9.70;99.90;;;;;;5055533;28;20071;-70
2023/04/16 04:21:56;;;;;;;66.20;27.15;;;9.70;99.90;;;;;;5073230;28;20508;-70
2023/04/16 04:24:22;;;;;;;72.70;26.25;;;9.60;99.90;;;;;;5073161;28;20037;-70
2023/04/16 04:26:47;;;;;;;80.70;27.08;;;10.00;99.90;;;;;;5055102;28;20128;-70
2023/04/16 04:29:13;;;;;;;67.70;27.67;;;9.40;99.90;;;;;;5055302;28;20036;-70
2023/04/16 04:31:38;;;;;;;76.47;28.58;;;9.80;99.90;;;;;;5038596;28;20128;-70
2023/04/16 04:34:04;;;;;;;71.25;28.42;;;9.90;99.90;;;;;;5055149;28;20518;-70
2023/04/16 04:36:31;;;;;;;86.82;30.67;;;;;;;;;;5038200;28;20044;-68
2023/04/16 04:38:56;;;;;;;76.00;28.45;;;9.90;99.90;;;;;;5054729;28;20573;-70
2023/04/16 04:41:23;;;;;;;71.82;26.98;;;9.80;99.90;;;;;;5055241;28;20037;-70
2023/04/16 04:43:48;;;;;;;69.88;28.02;;;9.60;99.90;;;;;;5038384;28;20467;-70
2023/04/16 04:46:14;;;;;;;76.78;29.77;;;9.80;99.90;;;;;;5054924;28;20067;-70
2023/04/16 04:48:40;;;;;;;84.10;29.77;;;9.90;99.90;;;;;;5054498;28;20439;-70
2023/04/16 04:51:05;;;;;;;77.75;28.88;;;9.50;99.90;;;;;;5055036;28;20051;-70
2023/04/16 04:53:31;;;;;;;88.38;30.00;;;9.80;99.90;;;;;;5038000;28;20048;-70
2023/04/16 04:55:57;;;;;;;96.00;30.30;;;10.10;99.90;;;;;;5054940;28;20500;-70
2023/04/16 04:58:22;;;;;;;89.43;30.17;;;9.80;99.90;;;;;;5037612;28;20135;-70
2023/04/16 05:00:48;;;;;;;92.13;31.65;;;9.90;99.90;;;;;;5038177;28;20507;-70
2023/04/16 05:03:19;;;;;;;86.28;30.17;;;10.10;99.90;;;;;;5054381;28;20033;-69
2023/04/16 05:05:45;;;;;;;86.90;30.13;;;9.70;99.90;;;;;;5054590;28;20032;-70
2023/04/16 05:08:11;;;;;;;91.47;31.08;;;9.80;99.90;;;;;;5054141;28;20090;-70
2023/04/16 05:10:36;;;;;;;101.20;30.45;;;9.70;99.90;;;;;;5038032;28;20411;-70
2023/04/16 05:13:02;;;;;;;93.22;30.42;;;9.80;99.90;;;;;;5054589;28;20044;-70
2023/04/16 05:15:28;;;;;;;81.75;26.90;;;10.00;99.90;;;;;;5054540;28;20583;-69
2023/04/16 05:17:55;;;;;;;82.75;28.48;;;9.80;99.90;;;;;;5054575;28;20127;-70
2023/04/16 05:20:22;;;;;;;80.28;25.23;;;9.60;99.90;;;;;;5038293;28;20408;-70
2023/04/16 05:22:49;;;;;;;73.75;25.10;;;10.10;99.90;;;;;;5054960;28;20041;-70
2023/04/16 05:25:16;;;;;;;86.93;29.27;;;9.80;99.90;;;;;;5055074;28;20043;-70
2023/04/16 05:27:41;;;;;;;80.15;24.95;;;10.00;99.90;;;;;;5038118;28;20484;-70
2023/04/16 05:30:08;;;;;;;75.05;25.50;;;10.30;99.90;;;;;;5037755;28;20094;-70
2023/04/16 05:32:33;;;;;;;71.32;24.13;;;9.90;99.90;;;;;;5054140;28;20508;-69
2023/04/16 05:34:59;;;;;;;66.47;24.45;;;10.00;99.90;;;;;;5054052;28;20135;-70
2023/04/16 05:37:25;;;;;;;73.97;24.38;;;10.00;99.90;;;;;;5053769;28;20046;-70
2023/04/16 05:39:50;;;;;;;70.57;23.90;;;9.90;99.90;;;;;;5037251;28;20075;-69
2023/04/16 05:42:16;;;;;;;71.63;25.05;;;10.00;99.90;;;;;;5054030;28;20115;-70
2023/04/16 05:44:41;;;;;;;78.45;25.25;;;10.20;99.90;;;;;;5054348;28;20082;-71
2023/04/16 05:47:08;;;;;;;73.80;24.75;;;10.00;99.90;;;;;;5053689;28;20535;-69
2023/04/16 05:49:36;;;;;;;74.95;24.08;;;9.80;99.90;;;;;;5037386;28;20408;-70
2023/04/16 05:52:02;;;;;;;77.32;25.42;;;9.80;99.90;;;;;;5054001;28;20476;-70
2023/04/16 05:54:28;;;;;;;74.47;24.85;;;9.90;99.90;;;;;;5036849;28;20499;-70
2023/04/16 05:56:53;;;;;;;67.78;24.67;;;9.80;99.90;;;;;;5071644;28;20040;-70
2023/04/16 05:59:19;;;;;;;71.47;24.73;;;9.80;99.90;;;;;;5053602;28;20448;-70
2023/04/16 06:01:45;;;;;;;59.85;24.42;;;10.20;99.90;;;;;;5053662;28;20480;-70
2023/04/16 06:04:10;;;;;;;72.55;24.50;;;9.80;99.90;;;;;;5036929;28;20036;-70
2023/04/16 06:06:36;;;;;;;72.47;25.13;;;10.10;99.90;;;;;;5053353;28;20083;-70
2023/04/16 06:09:02;;;;;;;59.80;24.95;;;9.90;99.90;;;;;;5053772;28;20373;-70
2023/04/16 06:11:31;;;;;;;74.55;25.67;;;9.90;99.90;;;;;;5053582;28;20097;-70
2023/04/16 06:13:57;;;;;;;77.43;27.02;;;9.80;99.90;;;;;;5053261;28;20045;-71
2023/04/16 06:16:22;;;;;;;79.97;27.00;;;10.00;99.90;;;;;;5053506;28;20431;-70
2023/04/16 06:18:48;;;;;;;85.38;27.02;;;9.80;99.90;;;;;;5053200;28;20029;-70
2023/04/16 06:21:14;;;;;;;85.95;27.73;;;10.20;99.90;;;;;;5053370;28;20043;-70
2023/04/16 06:23:40;;;;;;;69.55;27.25;;;10.00;99.90;;;;;;5052887;28;20411;-70
2023/04/16 06:26:05;;;;;;;73.97;26.55;;;10.00;99.90;;;;;;5053446;28;20115;-70
2023/04/16 06:28:31;;;;;;;71.50;25.98;;;10.10;99.90;;;;;;5036460;28;20128;-70
2023/04/16 06:30:57;;;;;;;80.30;26.48;;;10.40;99.90;;;;;;5036838;28;20033;-70
2023/04/16 06:33:22;;;;;;;74.47;26.40;;;9.90;99.90;;;;;;5053059;28;20086;-70
2023/04/16 06:35:48;;;;;;;77.35;25.83;;;10.10;99.90;;;;;;5053310;28;20037;-70
2023/04/16 06:38:14;;;;;;;75.10;27.15;;;10.10;99.90;;;;;;5036030;28;20045;-70
2023/04/16 06:40:39;;;;;;;71.78;24.45;;;10.30;99.90;;;;;;5053439;28;20124;-70
2023/04/16 06:43:05;;;;;;;70.95;24.48;;;10.00;99.90;;;;;;5036515;28;20032;-70
2023/04/16 06:45:31;;;;;;;72.30;25.85;;;10.00;99.90;;;;;;5036625;28;20028;-70
2023/04/16 06:48:02;;;;;;;78.85;26.77;;;10.20;99.90;;;;;;5036082;28;20066;-70
2023/04/16 06:50:27;;;;;;;77.10;26.38;;;10.00;99.90;;;;;;5053144;28;20522;-70
2023/04/16 06:52:54;;;;;;;82.55;25.77;;;10.20;99.90;;;;;;5036441;28;20041;-69
2023/04/16 06:55:19;;;;;;;71.55;25.45;;;10.20;99.90;;;;;;5036544;28;20044;-70
2023/04/16 06:57:45;;;;;;;69.85;27.15;;;10.30;99.90;;;;;;5054493;28;20420;-70
2023/04/16 07:00:11;;;;;;;71.30;25.15;;;10.30;99.90;;;;;;5056867;28;20082;-70
2023/04/16 07:02:37;;;;;;;72.10;24.17;;;;;;;;;;5056758;28;20515;-69
2023/04/16 07:05:03;;;;;;;81.18;25.52;;;10.40;99.90;;;;;;5057169;28;20090;-70
2023/04/16 07:07:28;;;;;;;58.00;22.35;;;10.20;99.90;;;;;;5056107;28;20124;-70
2023/04/16 07:09:54;;;;;;;64.75;23.63;;;10.20;99.90;;;;;;5056486;28;20403;-70
2023/04/16 07:12:20;;;;;;;58.45;22.23;;;10.30;99.90;;;;;;5056714;28;20099;-70
2023/04/16 07:14:46;;;;;;;66.38;23.38;;;10.20;99.90;;;;;;5056996;28;20125;-71
2023/04/16 07:17:11;;;;;;;67.25;23.52;;;10.30;99.90;;;;;;5040029;28;20072;-69
2023/04/16 07:19:37;;;;;;;70.32;24.35;;;10.40;99.90;;;;;;5056356;28;20119;-70
2023/04/16 07:22:03;;;;;;;63.13;24.40;;;10.60;99.90;;;;;;5056364;28;20033;-70
2023/04/16 07:24:29;;;;;;;68.47;24.88;;;10.70;99.90;;;;;;5056321;28;20037;-69
2023/04/16 07:26:55;;;;;;;50.17;21.63;;;10.50;99.90;;;;;;5039501;28;20038;-70
2023/04/16 07:29:20;;;;;;;60.55;25.67;;;10.30;99.90;;;;;;5039676;28;20059;-70
2023/04/16 07:31:46;;;;;;;67.93;25.10;;;10.30;99.90;;;;;;5056470;28;20049;-70
2023/04/16 07:34:11;;;;;;;77.93;33.50;;;10.40;99.90;;;;;;5056068;28;20598;-70
2023/04/16 07:36:37;;;;;;;98.68;43.38;;;10.70;99.90;;;;;;5073654;28;20416;-70
2023/04/16 07:39:04;;;;;;;64.35;28.05;;;10.60;99.90;;;;;;5055908;28;20040;-70
2023/04/16 07:41:32;;;;;;;79.97;31.38;;;;;;;;;;5056373;28;20040;-70
2023/04/16 07:44:01;;;;;;;70.00;28.77;;;;;;;;;;5055775;28;20117;-70
2023/04/16 07:46:27;;;;;;;64.63;28.67;;;;;;;;;;5055755;28;20166;-69
2023/04/16 07:48:57;;;;;;;59.13;29.65;;;;;;;;;;5056061;28;20181;-70
2023/04/16 07:51:27;;;;;;;57.47;22.08;;;;;;;;;;5056010;28;20036;-70
2023/04/16 07:53:55;;;;;;;63.22;23.42;;;;;;;;;;5039419;28;20076;-69
2023/04/16 07:56:21;;;;;;;54.45;22.70;;;;;;;;;;5055838;28;20511;-70
2023/04/16 07:58:47;;;;;;;52.80;23.50;;;;;;;;;;5055499;28;20177;-70
2023/04/16 08:01:13;;;;;;;56.38;21.65;;;;;;;;;;5073697;28;20470;-70
2023/04/16 08:03:39;;;;;;;57.42;20.58;;;;;;;;;;5055733;28;20044;-70
2023/04/16 08:06:05;;;;;;;72.82;22.35;;;;;;;;;;5053272;28;20565;-69
2023/04/16 08:08:31;;;;;;;55.40;21.60;;;;;;;;;;5054455;28;20044;-70
2023/04/16 08:10:58;;;;;;;48.55;20.45;;;;;;;;;;5051631;28;20103;-70
2023/04/16 08:13:25;;;;;;;58.17;20.17;;;;;;;;;;5049838;28;20040;-70
2023/04/16 08:15:51;;;;;;;53.08;20.55;;;;;;;;;;5039205;28;20044;-69
2023/04/16 08:18:17;;;;;;;54.78;18.30;;;;;;;;;;5031681;28;20047;-70
2023/04/16 08:20:43;;;;;;;51.70;19.67;;;;;;;;;;5036779;28;20127;-70
2023/04/16 08:23:09;;;;;;;51.67;19.98;;;;;;;;;;5038420;28;20172;-70
2023/04/16 08:25:35;;;;;;;57.47;20.38;;;;;;;;;;5035303;28;20041;-70
2023/04/16 08:28:01;;;;;;;51.10;19.83;;;;;;;;;;5040849;28;20051;-68
2023/04/16 08:30:27;;;;;;;56.63;20.35;;;;;;;;;;5047075;28;20040;-70
2023/04/16 08:32:53;;;;;;;50.25;20.05;;;;;;;;;;5045789;28;20147;-70
2023/04/16 08:35:20;;;;;;;60.95;21.70;;;;;;;;;;5050153;28;20173;-70
2023/04/16 08:37:46;;;;;;;57.50;19.65;;;;;;;;;;5051597;28;20500;-70
2023/04/16 08:40:11;;;;;;;58.30;21.40;;;11.40;99.90;;;;;;5052035;28;20040;-70
2023/04/16 08:42:45;;;;;;;59.67;20.77;;;;;;;;;;5054807;28;20502;-70
2023/04/16 08:45:16;;;;;;;46.63;20.38;;;11.50;99.90;;;;;;5055050;28;20044;-70
2023/04/16 08:47:46;;;;;;;53.05;21.42;;;11.20;99.90;;;;;;5054391;28;20036;-70
2023/04/16 08:50:14;;;;;;;52.10;20.88;;;11.50;99.90;;;;;;5054721;28;20047;-71
2023/04/16 08:52:53;;;;;;;49.30;20.15;;;11.70;99.90;;;;;;5054761;28;20124;-70
2023/04/16 08:55:23;;;;;;;63.47;23.52;;;11.50;99.90;;;;;;5037908;28;20040;-71
2023/04/16 08:57:57;;;;;;;59.97;24.67;;;;;;;;;;5053040;28;20496;-69
2023/04/16 09:00:23;;;;;;;50.80;22.27;;;;;;;;;;5038261;28;20483;-70
2023/04/16 09:02:50;;;;;;;47.95;19.98;;;11.60;99.90;;;;;;5037837;28;20079;-70
2023/04/16 09:05:16;;;;;;;55.95;21.67;;;11.60;99.90;;;;;;5054591;28;20032;-70
2023/04/16 09:07:46;;;;;;;50.90;20.92;;;11.80;99.90;;;;;;5037783;28;20056;-70
2023/04/16 09:10:13;;;;;;;53.83;20.35;;;11.70;99.90;;;;;;5037639;28;20083;-70
2023/04/16 09:12:43;;;;;;;53.75;21.67;;;12.00;99.90;;;;;;5037792;28;20094;-70
2023/04/16 09:15:10;;;;;;;52.95;19.92;;;12.00;99.90;;;;;;5037734;28;20036;-70
2023/04/16 09:17:36;;;;;;;46.45;18.95;;;11.90;99.90;;;;;;5054296;28;20071;-70
2023/04/16 09:20:04;;;;;;;45.53;19.00;;;12.20;99.90;;;;;;5054068;28;20492;-70
2023/04/16 09:22:31;;;;;;;53.45;21.45;;;;;;;;;;5037826;28;20087;-70
2023/04/16 09:24:56;;;;;;;41.15;19.90;;;;;;;;;;5053983;28;20090;-70
2023/04/16 09:27:24;;;;;;;39.72;18.20;;;12.10;99.90;;;;;;5053887;28;20048;-70
2023/04/16 09:29:49;;;;;;;37.35;18.70;;;12.00;99.90;;;;;;5072007;28;20044;-70
2023/04/16 09:32:15;;;;;;;40.40;19.88;;;12.10;99.90;;;;;;5054320;28;20044;-71
2023/04/16 09:34:57;;;;;;;50.35;19.73;;;12.20;99.90;;;;;;5054112;28;20131;-70
2023/04/16 09:37:24;;;;;;;46.67;20.73;;;12.00;99.90;;;;;;5053602;28;20114;-70
2023/04/16 09:39:58;;;;;;;47.17;18.40;;;12.10;99.90;;;;;;5037205;28;20115;-70
2023/04/16 09:42:27;;;;;;;46.65;20.05;;;12.30;99.90;;;;;;5053949;28;20072;-71
2023/04/16 09:44:53;;;;;;;47.40;19.33;;;;;;;;;;5053917;28;20192;-70
2023/04/16 09:47:19;;;;;;;47.65;20.63;;;;;;;;;;5037202;28;20564;-70
2023/04/16 09:49:46;;;;;;;41.65;20.13;;;12.30;99.90;;;;;;5053701;28;20127;-71
2023/04/16 09:52:19;;;;;;;40.40;16.55;;;12.60;99.90;;;;;;5037141;28;20036;-71
2023/04/16 09:54:50;;;;;;;53.17;21.95;;;12.40;99.90;;;;;;5053696;28;20082;-70
2023/04/16 09:57:20;;;;;;;33.38;18.80;;;12.50;99.90;;;;;;5053715;28;20033;-70
2023/04/16 09:59:46;;;;;;;44.50;19.48;;;;;;;;;;5053896;28;20082;-71
2023/04/16 10:02:12;;;;;;;44.35;19.80;;;;;;;;;;5053693;28;20548;-71
2023/04/16 10:04:52;;;;;;;38.38;19.40;;;12.30;99.90;;;;;;5036918;28;20085;-71
2023/04/16 10:07:18;;;;;;;43.35;18.60;;;12.40;99.90;;;;;;5053446;28;20093;-70
2023/04/16 10:09:45;;;;;;;41.25;18.70;;;;;;;;;;5053657;28;20041;-71
2023/04/16 10:12:13;;;;;;;40.40;19.30;;;12.60;99.90;;;;;;5053557;28;20044;-71
2023/04/16 10:14:40;;;;;;;44.83;18.95;;;12.80;99.90;;;;;;5053598;28;20036;-71
2023/04/16 10:17:06;;;;;;;49.90;18.85;;;12.60;99.90;;;;;;5036516;28;20072;-71
2023/04/16 10:19:32;;;;;;;43.30;19.73;;;12.90;99.90;;;;;;5053658;28;20041;-71
2023/04/16 10:21:58;;;;;;;44.00;17.90;;;12.90;99.90;;;;;;5053543;28;20036;-71
2023/04/16 10:24:28;;;;;;;44.30;17.75;;;12.90;99.90;;;;;;5053656;28;20407;-71
2023/04/16 10:26:55;;;;;;;35.15;16.95;;;12.80;99.90;;;;;;5036996;28;20040;-70
2023/04/16 10:29:22;;;;;;;35.08;18.95;;;12.80;99.90;;;;;;5053398;28;20040;-71
2023/04/16 10:31:49;;;;;;;32.85;17.92;;;12.80;99.90;;;;;;5053488;28;20045;-71
2023/04/16 10:34:16;;;;;;;38.35;18.63;;;13.00;99.90;;;;;;5057346;28;20047;-70
2023/04/16 10:36:42;;;;;;;41.05;18.80;;;;;;;;;;5057043;28;20044;-70
2023/04/16 10:39:12;;;;;;;49.50;18.00;;;13.20;99.90;;;;;;5056948;28;20052;-71
2023/04/16 10:41:38;;;;;;;44.38;19.23;;;12.90;99.90;;;;;;5057474;28;20052;-70
2023/04/16 10:44:08;;;;;;;51.22;19.48;;;12.80;99.90;;;;;;5040419;28;20076;-71
2023/04/16 10:46:37;;;;;;;39.35;18.20;;;12.90;99.90;;;;;;5056959;28;20036;-70
2023/04/16 10:49:14;;;;;;;43.20;19.88;;;12.80;99.90;;;;;;5056960;28;20072;-71
2023/04/16 10:51:40;;;;;;;49.00;18.85;;;12.70;99.90;;;;;;5057101;28;20090;-71
2023/04/16 10:54:10;;;;;;;40.13;19.63;;;12.60;99.90;;;;;;5040274;28;20047;-70
2023/04/16 10:56:36;;;;;;;47.03;21.15;;;12.60;99.90;;;;;;5056562;28;20049;-69
2023/04/16 10:59:10;;;;;;;50.00;20.42;;;12.50;99.90;;;;;;5040219;28;20093;-71
2023/04/16 11:01:39;;;;;;;41.85;20.77;;;12.60;99.90;;;;;;5056927;28;20492;-71
2023/04/16 11:04:20;;;;;;;48.83;20.85;;;12.50;99.90;;;;;;5040623;28;20450;-71
2023/04/16 11:07:04;;;;;;;52.00;20.17;;;12.70;99.90;;;;;;5057038;28;20395;-70
2023/04/16 11:09:46;;;;;;;48.20;20.65;;;12.60;99.90;;;;;;5056636;28;20068;-71
2023/04/16 11:12:31;;;;;;;48.28;22.50;;;12.90;99.90;;;;;;5056732;28;20071;-71
2023/04/16 11:15:08;;;;;;;46.05;20.25;;;12.80;99.90;;;;;;5040218;28;20403;-71
2023/04/16 11:17:45;;;;;;;45.72;20.63;;;12.70;99.90;;;;;;5056311;28;20060;-71
2023/04/16 11:20:19;;;;;;;50.40;20.30;;;12.60;99.90;;;;;;5056412;28;20067;-70
2023/04/16 11:22:45;;;;;;;40.22;20.02;;;12.50;99.90;;;;;;5039810;28;20120;-70
2023/04/16 11:25:11;;;;;;;44.92;18.80;;;12.70;99.90;;;;;;5056531;28;20036;-72
2023/04/16 11:27:37;;;;;;;30.38;17.42;;;12.70;99.90;;;;;;5056488;28;20051;-71
2023/04/16 11:30:05;;;;;;;39.88;17.92;;;12.70;99.90;;;;;;5056117;28;20040;-71
2023/04/16 11:32:32;;;;;;;42.15;18.17;;;12.40;99.90;;;;;;5057062;28;20044;-71
2023/04/16 11:35:02;;;;;;;39.38;18.17;;;12.70;99.90;;;;;;5056281;28;20052;-71
2023/04/16 11:37:36;;;;;;;40.80;20.50;;;12.70;99.90;;;;;;5056104;28;20071;-72
2023/04/16 11:40:05;;;;;;;39.47;19.08;;;12.80;99.90;;;;;;5056071;28;20519;-72
2023/04/16 11:42:31;;;;;;;40.13;18.13;;;;;;;;;;5055954;28;20551;-71
2023/04/16 11:45:01;;;;;;;50.72;20.92;;;12.70;99.90;;;;;;5055056;28;20041;-71
2023/04/16 11:47:31;;;;;;;45.90;18.52;;;12.80;99.90;;;;;;5056121;28;20554;-71
2023/04/16 11:50:13;;;;;;;41.45;19.20;;;12.90;99.90;;;;;;5056165;28;20044;-71
2023/04/16 11:52:39;;;;;;;46.00;20.52;;;12.90;99.90;;;;;;5056020;28;20714;-70
2023/04/16 11:55:05;;;;;;;55.28;25.88;;;13.00;99.90;;;;;;5055929;28;20051;-71
2023/04/16 11:57:31;;;;;;;39.08;20.25;;;12.90;99.90;;;;;;5055982;28;20047;-71
2023/04/16 11:59:58;;;;;;;37.92;17.85;;;13.00;99.90;;;;;;5055944;28;20029;-71
2023/04/16 12:02:37;;;;;;;49.03;20.25;;;12.80;99.90;;;;;;5056181;28;20029;-71
2023/04/16 12:05:04;;;;;;;36.90;20.10;;;13.00;99.90;;;;;;5055645;28;20033;-71
2023/04/16 12:07:30;;;;;;;42.72;20.30;;;12.90;99.90;;;;;;5055445;28;20076;-71
2023/04/16 12:10:09;;;;;;;33.40;18.90;;;13.10;99.90;;;;;;5055980;28;20079;-71
2023/04/16 12:12:35;;;;;;;40.55;19.80;;;13.20;99.90;;;;;;5055428;28;20032;-70
2023/04/16 12:15:02;;;;;;;41.20;18.80;;;13.20;99.90;;;;;;5056289;28;20442;-71
2023/04/16 12:17:28;;;;;;;41.00;19.75;;;;;;;;;;5039017;28;20414;-71
2023/04/16 12:19:59;;;;;;;42.80;17.52;;;13.50;99.90;;;;;;5055264;28;20048;-71
2023/04/16 12:22:36;;;;;;;30.73;16.98;;;13.70;99.90;;;;;;5055412;28;20102;-71
2023/04/16 12:25:06;;;;;;;31.30;17.00;;;13.20;99.90;;;;;;5055319;28;20033;-71
2023/04/16 12:27:51;;;;;;;38.15;17.33;;;13.70;99.90;;;;;;5055113;28;20045;-71
2023/04/16 12:30:26;;;;;;;35.45;17.77;;;13.60;99.90;;;;;;5055191;28;20523;-71
2023/04/16 12:33:15;;;;;;;40.65;17.70;;;13.50;99.90;;;;;;5038883;28;20052;-71
2023/04/16 12:35:42;;;;;;;33.33;17.52;;;13.70;99.90;;;;;;5055122;28;20514;-71
2023/04/16 12:38:08;;;;;;;33.15;17.48;;;13.70;99.90;;;;;;5054529;28;20075;-71
2023/04/16 12:40:34;;;;;;;30.30;15.75;;;13.90;99.90;;;;;;5073511;28;20082;-71
2023/04/16 12:43:01;;;;;;;32.53;16.17;;;13.90;99.90;;;;;;5055247;28;20048;-71